Time;durP1;ratioP1;P1;durP2;ratioP2;P2;SDS_P1;SDS_P2;PMS_P1;PMS_P2;Temp;Humidity;BMP_temperature;BMP_pressure;BME280_temperature;BME280_humidity;BME280_pressure;Samples;Min_cycle;Max_cycle;Signal;HPM_P1;HPM_P2
2022/06/15 00:02:11;;;;;;;3.88;2.10;;;19.00;48.30;;;;;;5042991;28;20390;-76
2022/06/15 00:04:37;;;;;;;3.08;1.95;;;19.00;48.10;;;;;;5048028;28;20037;-75
2022/06/15 00:07:03;;;;;;;5.10;2.25;;;19.00;48.00;;;;;;5052472;28;20028;-75
2022/06/15 00:09:29;;;;;;;4.50;2.17;;;18.90;48.30;;;;;;5040491;28;20033;-76
2022/06/15 00:11:55;;;;;;;5.30;2.67;;;18.90;48.40;;;;;;5042294;28;20530;-76
2022/06/15 00:14:26;;;;;;;3.20;2.17;;;18.80;48.30;;;;;;5040550;28;20021;-77
2022/06/15 00:16:53;;;;;;;7.45;2.47;;;18.80;48.70;;;;;;5049110;28;20029;-76
2022/06/15 00:19:19;;;;;;;10.27;2.70;;;18.80;48.60;;;;;;5049531;28;20074;-75
2022/06/15 00:21:45;;;;;;;5.93;2.33;;;18.80;48.90;;;;;;5053150;28;20111;-76
2022/06/15 00:24:11;;;;;;;2.75;2.13;;;18.80;48.80;;;;;;5041684;28;20030;-76
2022/06/15 00:26:38;;;;;;;3.75;2.13;;;18.70;48.70;;;;;;5049710;28;20032;-76
2022/06/15 00:29:05;;;;;;;6.05;2.60;;;18.70;48.80;;;;;;5050505;28;20125;-75
2022/06/15 00:31:31;;;;;;;2.97;2.20;;;18.70;48.90;;;;;;5043758;28;20022;-76
2022/06/15 00:33:57;;;;;;;3.95;2.60;;;18.70;49.10;;;;;;5043941;28;20062;-74
2022/06/15 00:36:24;;;;;;;5.63;2.50;;;18.60;49.00;;;;;;5054265;28;20365;-75
2022/06/15 00:39:00;;;;;;;5.18;2.15;;;18.60;49.20;;;;;;5037568;28;20036;-76
2022/06/15 00:41:35;;;;;;;6.20;3.10;;;18.60;49.40;;;;;;5048768;28;20119;-74
2022/06/15 00:44:21;;;;;;;5.43;2.40;;;18.60;49.60;;;;;;5048298;28;20033;-76
2022/06/15 00:46:50;;;;;;;3.90;2.13;;;18.50;49.50;;;;;;5035778;28;20036;-76
2022/06/15 00:49:24;;;;;;;3.42;2.45;;;18.50;49.30;;;;;;5053282;28;20029;-76
2022/06/15 00:52:02;;;;;;;2.50;2.05;;;18.50;49.70;;;;;;5053536;28;20074;-76
2022/06/15 00:54:28;;;;;;;3.30;2.35;;;18.40;49.60;;;;;;5039848;28;20112;-75
2022/06/15 00:56:55;;;;;;;4.80;2.78;;;18.40;50.10;;;;;;5049840;28;20021;-76
2022/06/15 00:59:31;;;;;;;5.32;2.67;;;18.40;50.00;;;;;;5039422;28;20100;-76
2022/06/15 01:01:57;;;;;;;5.28;2.75;;;18.40;50.00;;;;;;5050459;28;20041;-75
2022/06/15 01:04:26;;;;;;;4.10;2.75;;;18.40;49.90;;;;;;5040112;28;20076;-76
2022/06/15 01:07:06;;;;;;;8.18;2.30;;;18.30;50.00;;;;;;5048626;28;20033;-76
2022/06/15 01:09:37;;;;;;;10.30;2.83;;;18.30;50.20;;;;;;5040702;28;20412;-76
2022/06/15 01:12:14;;;;;;;4.53;2.65;;;18.30;50.20;;;;;;5042732;28;20100;-76
2022/06/15 01:15:13;;;;;;;12.30;2.90;;;18.20;50.40;;;;;;5049305;28;20025;-76
2022/06/15 01:17:54;;;;;;;15.57;3.30;;;18.20;50.30;;;;;;5050214;28;20468;-76
2022/06/15 01:20:44;;;;;;;11.52;3.58;;;18.20;50.40;;;;;;5046920;28;20048;-75
2022/06/15 01:23:44;;;;;;;7.15;2.83;;;18.10;50.40;;;;;;5047963;28;20024;-76
2022/06/15 01:26:29;;;;;;;10.45;3.47;;;18.10;50.50;;;;;;5044535;28;20426;-76
2022/06/15 01:29:35;;;;;;;5.10;2.40;;;18.00;50.70;;;;;;5035093;28;20323;-76
2022/06/15 01:32:10;;;;;;;5.97;2.97;;;18.00;50.90;;;;;;5032299;28;20048;-75
2022/06/15 01:34:52;;;;;;;6.40;2.95;;;18.00;50.90;;;;;;5050549;28;20072;-76
2022/06/15 01:37:35;;;;;;;7.32;2.80;;;18.00;51.30;;;;;;5051956;28;20025;-76
2022/06/15 01:40:22;;;;;;;8.45;3.03;;;17.90;51.20;;;;;;5051686;28;20500;-76
2022/06/15 01:42:56;;;;;;;6.28;2.80;;;17.90;51.50;;;;;;5051748;28;20487;-76
2022/06/15 01:45:27;;;;;;;6.68;2.65;;;17.80;51.50;;;;;;5050876;28;20048;-76
2022/06/15 01:47:56;;;;;;;7.38;2.50;;;17.80;51.60;;;;;;5051803;28;20036;-76
2022/06/15 01:50:32;;;;;;;8.02;2.58;;;17.80;51.90;;;;;;5052126;28;20466;-76
2022/06/15 01:53:05;;;;;;;9.48;3.28;;;17.80;52.10;;;;;;5051412;28;20028;-76
2022/06/15 01:55:44;;;;;;;8.10;2.87;;;17.70;52.40;;;;;;5051387;28;20033;-76
2022/06/15 01:58:13;;;;;;;6.10;2.70;;;17.70;52.60;;;;;;5051767;28;20119;-76
2022/06/15 02:00:40;;;;;;;9.15;2.88;;;17.70;52.60;;;;;;5052799;28;20017;-75
2022/06/15 02:03:13;;;;;;;5.38;2.60;;;17.70;52.60;;;;;;5052165;28;20469;-76
2022/06/15 02:05:45;;;;;;;5.03;2.83;;;17.60;52.60;;;;;;5052850;28;20051;-75
2022/06/15 02:08:16;;;;;;;6.03;2.85;;;17.60;53.00;;;;;;5050681;28;20068;-77
2022/06/15 02:11:01;;;;;;;10.15;2.53;;;17.60;53.10;;;;;;5051524;28;20565;-76
2022/06/15 02:13:42;;;;;;;5.05;1.92;;;17.50;53.10;;;;;;5053032;28;20025;-75
2022/06/15 02:16:19;;;;;;;5.22;2.83;;;17.50;53.00;;;;;;5050050;28;20025;-76
2022/06/15 02:18:46;;;;;;;4.18;2.65;;;17.50;53.20;;;;;;5055497;28;20366;-76
2022/06/15 02:21:16;;;;;;;5.47;2.72;;;17.50;53.00;;;;;;5054038;28;20107;-76
2022/06/15 02:23:43;;;;;;;7.00;2.67;;;17.40;53.30;;;;;;5055311;28;20421;-75
2022/06/15 02:26:10;;;;;;;7.40;2.85;;;17.40;53.40;;;;;;5055129;28;20037;-75
2022/06/15 02:28:45;;;;;;;6.38;2.53;;;17.40;53.80;;;;;;5055266;28;20082;-76
2022/06/15 02:31:10;;;;;;;;;;;17.30;54.00;;;;;;5055599;28;20033;-76
2022/06/15 02:33:44;;;;;;;13.02;3.67;;;17.40;52.90;;;;;;5055858;28;20268;-76
2022/06/15 02:36:10;;;;;;;3.35;2.53;;;17.40;54.00;;;;;;5056363;28;20072;-76
2022/06/15 02:38:36;;;;;;;7.28;2.97;;;17.30;54.10;;;;;;5056062;28;21248;-76
2022/06/15 02:41:02;;;;;;;3.63;2.60;;;17.30;54.20;;;;;;5055942;28;20025;-75
2022/06/15 02:43:31;;;;;;;5.82;2.63;;;17.20;54.50;;;;;;5055213;28;20048;-76
2022/06/15 02:46:01;;;;;;;5.97;2.90;;;17.20;54.40;;;;;;5053294;28;20042;-76
2022/06/15 02:48:27;;;;;;;4.60;2.55;;;17.20;54.60;;;;;;5054819;28;20475;-76
2022/06/15 02:51:15;;;;;;;3.17;2.20;;;17.20;54.50;;;;;;5054779;28;20021;-76
2022/06/15 02:53:42;;;;;;;6.90;2.65;;;17.20;54.60;;;;;;5045179;28;20029;-76
2022/06/15 02:56:11;;;;;;;5.28;2.53;;;17.10;54.40;;;;;;5036125;28;20029;-75
2022/06/15 02:58:41;;;;;;;3.90;2.53;;;17.10;54.40;;;;;;5037162;28;20120;-76
2022/06/15 03:01:07;;;;;;;6.75;3.10;;;17.10;54.40;;;;;;5056234;28;20028;-76
2022/06/15 03:03:34;;;;;;;6.85;2.53;;;17.10;54.40;;;;;;5055404;28;20132;-75
2022/06/15 03:05:59;;;;;;;3.17;2.28;;;17.10;54.60;;;;;;5054514;28;20092;-75
2022/06/15 03:08:25;;;;;;;5.18;2.78;;;17.00;54.30;;;;;;5053899;28;20480;-75
2022/06/15 03:10:52;;;;;;;5.68;2.20;;;17.00;54.40;;;;;;5055997;28;20032;-75
2022/06/15 03:13:19;;;;;;;2.67;2.20;;;17.00;54.40;;;;;;5047609;28;20490;-76
2022/06/15 03:15:46;;;;;;;4.45;2.40;;;17.00;54.40;;;;;;5055616;28;20362;-75
2022/06/15 03:18:12;;;;;;;4.68;2.83;;;17.00;54.40;;;;;;5052105;28;20079;-75
2022/06/15 03:20:39;;;;;;;9.30;3.20;;;17.00;54.40;;;;;;5054204;28;20480;-75
2022/06/15 03:23:06;;;;;;;5.25;2.70;;;17.00;54.70;;;;;;5055412;28;20056;-76
2022/06/15 03:25:33;;;;;;;3.22;2.40;;;17.00;54.60;;;;;;5053110;28;20040;-75
2022/06/15 03:27:59;;;;;;;3.00;2.28;;;17.00;54.50;;;;;;5054197;28;20031;-76
2022/06/15 03:30:25;;;;;;;4.30;3.05;;;17.00;54.50;;;;;;5052473;28;20509;-76
2022/06/15 03:32:51;;;;;;;4.25;2.63;;;17.00;54.70;;;;;;5052853;28;20449;-76
2022/06/15 03:35:16;;;;;;;3.95;2.55;;;17.10;54.60;;;;;;5054316;28;20033;-76
2022/06/15 03:37:42;;;;;;;5.50;2.67;;;17.10;54.80;;;;;;5054464;28;20025;-76
2022/06/15 03:40:10;;;;;;;4.25;2.65;;;17.10;54.80;;;;;;5055207;28;20021;-75
2022/06/15 03:42:40;;;;;;;7.50;2.80;;;17.10;54.90;;;;;;5055066;28;20048;-76
2022/06/15 03:45:07;;;;;;;4.50;2.42;;;17.10;54.70;;;;;;5053622;28;20039;-77
2022/06/15 03:47:33;;;;;;;3.22;2.60;;;17.20;54.80;;;;;;5053733;28;20421;-76
2022/06/15 03:49:59;;;;;;;3.65;2.15;;;17.20;54.80;;;;;;5053824;28;20032;-75
2022/06/15 03:52:26;;;;;;;3.60;2.50;;;17.20;54.80;;;;;;5054971;28;20017;-75
2022/06/15 03:54:53;;;;;;;6.53;2.78;;;17.30;55.00;;;;;;5054648;28;20028;-76
2022/06/15 03:57:20;;;;;;;6.97;2.95;;;17.30;55.20;;;;;;5054516;28;20051;-75
2022/06/15 03:59:47;;;;;;;4.65;2.90;;;17.30;55.40;;;;;;5055090;28;20020;-76
2022/06/15 04:02:12;;;;;;;6.13;2.95;;;17.40;55.60;;;;;;5053504;28;20045;-76
2022/06/15 04:04:38;;;;;;;3.25;2.35;;;17.40;56.40;;;;;;5052856;28;20128;-75
2022/06/15 04:08:34;;;;;;;5.72;2.60;;;17.40;55.70;;;;;;5054729;28;20060;-75
2022/06/15 04:09:53;;;;;;;3.85;2.65;;;17.50;55.80;;;;;;5054274;28;20017;-75
2022/06/15 04:12:19;;;;;;;7.03;2.85;;;17.60;56.10;;;;;;5053136;28;20025;-75
2022/06/15 04:14:44;;;;;;;5.47;3.00;;;17.60;56.00;;;;;;5053469;28;20438;-77
2022/06/15 04:17:11;;;;;;;6.13;3.17;;;17.60;56.10;;;;;;5053136;28;20051;-75
2022/06/15 04:19:37;;;;;;;5.30;3.08;;;17.70;56.10;;;;;;5049228;28;20117;-75
2022/06/15 04:22:03;;;;;;;4.82;2.80;;;17.70;56.10;;;;;;5041531;28;20429;-75
2022/06/15 04:24:31;;;;;;;5.38;3.08;;;17.80;56.00;;;;;;5053653;28;20493;-74
2022/06/15 04:26:58;;;;;;;5.93;2.80;;;17.80;56.10;;;;;;5053030;28;20033;-75
2022/06/15 04:29:25;;;;;;;5.82;2.85;;;17.90;56.00;;;;;;5053235;28;20384;-75
2022/06/15 04:31:51;;;;;;;5.40;2.63;;;17.90;56.00;;;;;;5054373;28;20066;-75
2022/06/15 04:34:17;;;;;;;6.03;3.03;;;18.00;55.90;;;;;;5053075;28;20031;-75
2022/06/15 04:36:44;;;;;;;4.95;3.03;;;18.00;55.90;;;;;;5051831;28;20029;-75
2022/06/15 04:39:12;;;;;;;6.95;3.20;;;18.10;55.80;;;;;;5052853;28;20032;-75
2022/06/15 04:41:42;;;;;;;7.13;2.83;;;18.10;56.00;;;;;;5052055;28;20116;-75
2022/06/15 04:44:11;;;;;;;6.78;3.38;;;18.20;56.00;;;;;;5054015;28;20039;-75
2022/06/15 04:46:37;;;;;;;5.55;3.28;;;18.20;55.70;;;;;;5052704;28;20031;-75
2022/06/15 04:49:03;;;;;;;6.00;3.15;;;18.30;55.80;;;;;;5053743;28;20021;-75
2022/06/15 04:51:30;;;;;;;4.45;2.65;;;18.40;55.40;;;;;;5052668;28;20032;-76
2022/06/15 04:53:58;;;;;;;8.13;2.70;;;18.40;55.40;;;;;;5051908;28;20029;-75
2022/06/15 04:56:25;;;;;;;4.85;3.03;;;18.50;55.40;;;;;;5052662;28;20032;-75
2022/06/15 04:58:51;;;;;;;8.90;3.28;;;18.50;55.40;;;;;;5053013;28;20344;-75
2022/06/15 05:01:17;;;;;;;15.88;5.60;;;18.60;55.50;;;;;;5052167;28;20480;-76
2022/06/15 05:03:43;;;;;;;9.48;4.10;;;18.70;56.00;;;;;;5053021;28;20167;-75
2022/06/15 05:06:21;;;;;;;5.65;3.13;;;18.70;55.20;;;;;;5050155;28;20174;-76
2022/06/15 05:08:47;;;;;;;6.85;3.90;;;18.80;55.30;;;;;;5048552;28;20088;-75
2022/06/15 05:11:13;;;;;;;10.98;4.10;;;18.90;55.20;;;;;;5055295;28;20357;-75
2022/06/15 05:13:38;;;;;;;4.57;3.42;;;19.00;55.30;;;;;;5053608;28;20170;-75
2022/06/15 05:16:04;;;;;;;7.90;3.35;;;19.10;55.30;;;;;;5052515;28;20044;-75
2022/06/15 05:18:30;;;;;;;6.80;3.47;;;19.20;55.40;;;;;;5051234;28;20119;-75
2022/06/15 05:20:57;;;;;;;6.72;3.80;;;19.30;55.30;;;;;;5053213;28;20484;-75
2022/06/15 05:23:23;;;;;;;6.60;3.30;;;19.40;55.40;;;;;;5053395;28;20464;-75
2022/06/15 05:25:49;;;;;;;6.93;3.75;;;19.50;55.20;;;;;;5051896;28;20040;-75
2022/06/15 05:28:15;;;;;;;11.05;5.07;;;19.60;54.80;;;;;;5050637;28;20036;-75
2022/06/15 05:30:40;;;;;;;8.77;4.95;;;19.70;53.70;;;;;;5052034;28;20362;-75
2022/06/15 05:33:07;;;;;;;7.32;4.53;;;19.80;53.20;;;;;;5051088;28;20061;-75
2022/06/15 05:35:33;;;;;;;10.68;4.53;;;19.90;53.10;;;;;;5052365;28;20401;-75
2022/06/15 05:37:59;;;;;;;9.45;5.28;;;20.00;52.90;;;;;;5053054;28;20025;-76
2022/06/15 05:40:25;;;;;;;12.73;6.57;;;20.10;52.60;;;;;;5052625;28;20108;-75
2022/06/15 05:42:51;;;;;;;11.15;6.32;;;20.30;52.10;;;;;;5053633;28;20115;-75
2022/06/15 05:45:17;;;;;;;13.63;6.32;;;20.30;51.60;;;;;;5052384;28;20064;-76
2022/06/15 05:47:43;;;;;;;21.70;8.65;;;20.50;51.50;;;;;;5051696;28;20029;-75
2022/06/15 05:50:13;;;;;;;14.10;6.53;;;20.50;50.80;;;;;;5051469;28;20415;-75
2022/06/15 05:52:39;;;;;;;18.08;7.25;;;20.60;50.80;;;;;;5051456;28;20448;-74
2022/06/15 05:55:06;;;;;;;14.73;7.45;;;20.70;50.50;;;;;;5052880;28;20029;-76
2022/06/15 05:57:32;;;;;;;12.50;6.28;;;20.80;50.10;;;;;;5056783;28;20067;-76
2022/06/15 05:59:58;;;;;;;11.35;6.22;;;20.90;49.80;;;;;;5052202;28;20090;-75
2022/06/15 06:02:27;;;;;;;12.80;6.18;;;21.00;49.80;;;;;;5050211;28;20049;-75
2022/06/15 06:04:54;;;;;;;10.38;5.68;;;21.10;49.40;;;;;;5052898;28;20086;-76
2022/06/15 06:07:23;;;;;;;14.18;5.90;;;21.20;49.30;;;;;;5063113;28;20073;-76
2022/06/15 06:09:49;;;;;;;11.77;5.80;;;21.30;49.10;;;;;;5048416;28;20060;-75
2022/06/15 06:12:17;;;;;;;18.02;6.07;;;21.40;49.00;;;;;;5052669;28;20029;-75
2022/06/15 06:14:43;;;;;;;11.48;5.10;;;21.40;48.80;;;;;;5052535;28;20108;-76
2022/06/15 06:17:09;;;;;;;9.73;5.22;;;21.50;48.80;;;;;;5049694;28;20136;-76
2022/06/15 06:19:35;;;;;;;9.30;5.40;;;21.60;48.60;;;;;;5036740;28;20025;-76
2022/06/15 06:22:01;;;;;;;13.60;5.22;;;21.60;48.40;;;;;;5041483;28;20094;-76
2022/06/15 06:24:26;;;;;;;13.52;5.38;;;21.70;48.20;;;;;;5034007;28;20123;-76
2022/06/15 06:27:04;;;;;;;7.53;5.03;;;21.70;47.60;;;;;;5039105;28;20021;-76
2022/06/15 06:29:30;;;;;;;9.73;5.38;;;21.80;47.70;;;;;;5050418;28;20036;-75
2022/06/15 06:32:00;;;;;;;7.55;4.65;;;21.80;47.70;;;;;;5051202;28;20392;-77
2022/06/15 06:34:29;;;;;;;10.90;5.88;;;21.80;47.70;;;;;;5052805;28;20029;-76
2022/06/15 06:36:56;;;;;;;13.38;5.22;;;21.80;47.50;;;;;;5052628;28;20029;-77
2022/06/15 06:39:25;;;;;;;11.35;5.65;;;21.80;47.40;;;;;;5052740;28;20492;-76
2022/06/15 06:41:51;;;;;;;11.82;5.45;;;21.90;47.20;;;;;;5041150;28;20075;-76
2022/06/15 06:44:17;;;;;;;14.80;6.00;;;21.90;47.20;;;;;;5052393;28;20071;-77
2022/06/15 06:46:45;;;;;;;11.90;5.88;;;21.90;46.90;;;;;;5051311;28;20029;-76
2022/06/15 06:49:12;;;;;;;14.43;5.70;;;21.90;46.90;;;;;;5052499;28;20100;-77
2022/06/15 06:51:41;;;;;;;11.32;6.45;;;21.90;46.80;;;;;;5051237;28;20036;-76
2022/06/15 06:54:08;;;;;;;10.30;5.70;;;22.00;46.70;;;;;;5052587;28;20083;-76
2022/06/15 06:56:35;;;;;;;8.77;5.05;;;22.10;46.70;;;;;;5052675;28;20048;-76
2022/06/15 06:59:01;;;;;;;9.15;5.38;;;22.10;46.60;;;;;;5051199;28;20036;-76
2022/06/15 07:01:27;;;;;;;9.65;4.63;;;22.10;46.60;;;;;;5054212;28;20104;-72
2022/06/15 07:03:53;;;;;;;8.75;5.70;;;22.20;46.70;;;;;;5054897;28;20060;-77
2022/06/15 07:06:19;;;;;;;11.65;4.82;;;22.30;46.30;;;;;;5054700;28;20083;-76
2022/06/15 07:08:44;;;;;;;9.07;5.00;;;22.30;46.30;;;;;;5056025;28;20025;-76
2022/06/15 07:11:13;;;;;;;9.52;4.63;;;22.40;46.20;;;;;;5055174;28;20028;-76
2022/06/15 07:13:39;;;;;;;15.93;5.68;;;22.40;46.10;;;;;;5054729;28;20078;-76
2022/06/15 07:16:10;;;;;;;12.57;5.70;;;22.40;45.70;;;;;;5055634;28;20358;-76
2022/06/15 07:18:36;;;;;;;11.77;5.45;;;22.50;45.60;;;;;;5055961;28;20138;-76
2022/06/15 07:21:07;;;;;;;9.02;5.50;;;22.50;45.80;;;;;;5046289;28;20025;-76
2022/06/15 07:23:34;;;;;;;9.90;5.18;;;22.50;45.70;;;;;;5053841;28;20028;-75
2022/06/15 07:26:04;;;;;;;6.60;4.68;;;22.60;45.80;;;;;;5054438;28;20033;-76
2022/06/15 07:28:31;;;;;;;12.10;5.80;;;22.60;45.60;;;;;;5053561;28;20061;-76
2022/06/15 07:30:56;;;;;;;8.90;5.28;;;22.70;45.50;;;;;;5055593;28;20021;-76
2022/06/15 07:33:22;;;;;;;7.47;5.07;;;22.70;45.70;;;;;;5055468;28;20395;-76
2022/06/15 07:35:48;;;;;;;6.05;4.20;;;22.70;45.30;;;;;;5054160;28;20127;-75
2022/06/15 07:38:14;;;;;;;7.30;4.18;;;22.80;45.40;;;;;;5055536;28;20025;-75
2022/06/15 07:40:40;;;;;;;8.40;4.97;;;22.90;45.80;;;;;;5054417;28;20109;-76
2022/06/15 07:43:06;;;;;;;6.50;4.45;;;23.00;45.40;;;;;;5064475;28;20040;-75
2022/06/15 07:45:32;;;;;;;20.38;5.55;;;23.10;45.20;;;;;;5062381;28;20039;-76
2022/06/15 07:50:42;;;;;;;8.05;4.93;;;23.20;45.10;;;;;;5054816;28;20404;-75
2022/06/15 07:53:11;;;;;;;9.68;4.25;;;23.30;44.60;;;;;;5054045;28;20029;-76
2022/06/15 07:55:40;;;;;;;11.60;4.00;;;23.30;44.50;;;;;;5052463;28;20033;-76
2022/06/15 07:58:07;;;;;;;6.60;4.05;;;23.40;44.80;;;;;;5054927;28;20033;-75
2022/06/15 08:00:35;;;;;;;5.70;3.83;;;23.40;44.80;;;;;;5055028;28;20021;-76
2022/06/15 08:03:31;;;;;;;6.25;3.85;;;23.50;44.90;;;;;;5053839;28;20041;-78
2022/06/15 08:05:57;;;;;;;5.97;3.20;;;23.60;44.50;;;;;;5052497;28;20091;-74
2022/06/15 08:08:24;;;;;;;7.35;3.45;;;23.70;44.50;;;;;;5053585;28;20021;-74
2022/06/15 08:10:51;;;;;;;10.38;3.90;;;23.80;44.40;;;;;;5054073;28;20078;-74
2022/06/15 08:13:17;;;;;;;5.85;3.78;;;23.80;44.00;;;;;;5041370;28;20036;-74
2022/06/15 08:15:45;;;;;;;9.07;3.67;;;23.90;43.90;;;;;;5050477;28;20086;-74
2022/06/15 08:18:16;;;;;;;5.95;3.10;;;24.00;43.70;;;;;;5052703;28;20036;-74
2022/06/15 08:21:01;;;;;;;6.10;3.38;;;24.10;43.90;;;;;;5053771;28;20108;-74
2022/06/15 08:23:31;;;;;;;5.50;3.20;;;24.10;44.00;;;;;;5054946;28;20031;-75
2022/06/15 08:26:02;;;;;;;4.63;3.00;;;24.20;43.60;;;;;;5054518;28;20037;-74
2022/06/15 08:28:34;;;;;;;4.13;3.03;;;24.30;42.90;;;;;;5053559;28;20072;-74
2022/06/15 08:31:00;;;;;;;7.47;3.00;;;24.40;43.10;;;;;;5054761;28;20036;-75
2022/06/15 08:33:27;;;;;;;7.70;2.70;;;24.40;43.30;;;;;;5054626;28;20025;-75
2022/06/15 08:35:53;;;;;;;3.97;2.63;;;24.50;43.00;;;;;;5054137;28;20029;-74
2022/06/15 08:38:22;;;;;;;8.18;3.22;;;24.60;43.30;;;;;;5054272;28;20481;-75
2022/06/15 08:40:58;;;;;;;4.70;2.53;;;24.60;42.80;;;;;;5052994;28;20110;-74
2022/06/15 08:43:42;;;;;;;7.88;3.38;;;24.70;43.00;;;;;;5054184;28;20053;-75
2022/06/15 08:46:14;;;;;;;6.28;2.70;;;24.80;42.60;;;;;;5052963;28;20116;-75
2022/06/15 08:48:54;;;;;;;3.53;2.40;;;24.90;42.70;;;;;;5053952;28;20385;-75
2022/06/15 08:51:23;;;;;;;3.92;2.38;;;24.90;42.60;;;;;;5054031;28;20036;-74
2022/06/15 08:54:10;;;;;;;5.55;2.97;;;25.00;42.50;;;;;;5054258;28;20029;-75
2022/06/15 08:56:52;;;;;;;5.97;2.22;;;25.10;42.40;;;;;;5051147;28;20151;-76
2022/06/15 08:59:46;;;;;;;4.10;2.50;;;25.20;42.20;;;;;;5052836;28;20427;-75
2022/06/15 09:02:31;;;;;;;6.13;2.40;;;25.20;41.10;;;;;;5053784;28;20056;-75
2022/06/15 09:05:35;;;;;;;13.85;3.00;;;25.30;41.30;;;;;;5047867;28;20385;-75
2022/06/15 09:08:37;;;;;;;5.95;2.75;;;25.30;41.00;;;;;;5054041;28;20025;-75
2022/06/15 09:11:19;;;;;;;6.60;2.28;;;25.50;39.90;;;;;;5054048;28;20074;-75
2022/06/15 09:14:29;;;;;;;5.95;2.33;;;25.50;39.80;;;;;;5049604;28;20140;-75
2022/06/15 09:17:07;;;;;;;3.88;2.10;;;25.50;39.20;;;;;;5050164;28;20055;-74
2022/06/15 09:19:44;;;;;;;3.97;2.33;;;25.60;38.70;;;;;;5052538;28;20393;-74
2022/06/15 09:22:16;;;;;;;7.18;2.38;;;25.70;38.20;;;;;;5051099;28;20132;-75
2022/06/15 09:25:04;;;;;;;5.07;2.58;;;25.80;37.40;;;;;;5052907;28;20033;-75
2022/06/15 09:27:35;;;;;;;11.35;3.03;;;25.80;37.70;;;;;;5052394;28;20453;-74
2022/06/15 09:30:10;;;;;;;5.93;2.60;;;25.90;36.60;;;;;;5052428;28;20032;-74
2022/06/15 09:32:41;;;;;;;5.15;2.00;;;26.00;37.50;;;;;;5053628;28;20052;-74
2022/06/15 09:35:12;;;;;;;3.03;1.92;;;26.00;37.90;;;;;;5049841;28;20045;-75
2022/06/15 09:37:40;;;;;;;8.13;2.40;;;26.10;37.90;;;;;;5045114;28;20075;-74
2022/06/15 09:40:07;;;;;;;3.85;2.13;;;26.20;37.70;;;;;;5049860;28;20033;-74
2022/06/15 09:43:10;;;;;;;3.85;2.10;;;26.30;37.90;;;;;;5051832;28;20029;-74
2022/06/15 09:45:51;;;;;;;2.45;1.85;;;26.30;37.50;;;;;;5052672;28;20036;-74
2022/06/15 09:48:37;;;;;;;7.72;1.98;;;26.40;36.30;;;;;;5053228;28;20017;-75
2022/06/15 09:51:12;;;;;;;5.57;2.15;;;26.50;36.60;;;;;;5045949;28;20120;-74
2022/06/15 09:53:49;;;;;;;6.07;2.42;;;26.50;35.80;;;;;;5043511;28;20053;-74
2022/06/15 09:56:19;;;;;;;4.68;2.00;;;26.60;35.80;;;;;;5032212;28;20363;-74
2022/06/15 09:58:54;;;;;;;6.32;2.15;;;26.70;35.80;;;;;;5033361;28;20057;-73
2022/06/15 10:01:22;;;;;;;10.95;2.65;;;26.70;35.50;;;;;;5032837;28;20052;-75
2022/06/15 10:03:51;;;;;;;3.00;2.03;;;26.80;36.00;;;;;;5031820;28;20087;-74
2022/06/15 10:06:32;;;;;;;3.50;1.90;;;26.80;35.70;;;;;;5033134;28;20040;-74
2022/06/15 10:09:01;;;;;;;3.35;1.77;;;26.80;34.60;;;;;;5032008;28;20029;-74
2022/06/15 10:11:40;;;;;;;4.03;1.75;;;26.90;33.60;;;;;;5031211;28;20026;-77
2022/06/15 10:14:37;;;;;;;6.32;1.90;;;27.00;32.80;;;;;;5031980;28;20532;-73
2022/06/15 10:17:05;;;;;;;7.05;2.08;;;27.00;34.60;;;;;;5015225;28;20056;-73
2022/06/15 10:19:34;;;;;;;4.25;1.70;;;27.10;33.70;;;;;;5031879;28;20055;-73
2022/06/15 10:22:06;;;;;;;7.07;1.73;;;27.10;33.30;;;;;;5032820;28;20049;-74
2022/06/15 10:24:36;;;;;;;5.22;2.00;;;27.10;32.40;;;;;;5032104;28;20116;-73
2022/06/15 10:27:30;;;;;;;5.57;2.10;;;27.10;31.20;;;;;;5031721;28;20083;-74
2022/06/15 10:30:22;;;;;;;3.60;1.65;;;27.20;32.50;;;;;;5033158;28;20034;-74
2022/06/15 10:33:17;;;;;;;7.03;2.38;;;27.20;32.10;;;;;;5032667;28;20029;-74
2022/06/15 10:35:57;;;;;;;3.00;2.08;;;27.30;32.20;;;;;;5036048;28;20056;-74
2022/06/15 10:38:24;;;;;;;2.83;1.63;;;27.40;32.20;;;;;;5036849;28;20088;-73
2022/06/15 10:43:48;;;;;;;2.67;1.70;;;27.50;30.50;;;;;;5036666;28;20035;-74
2022/06/15 10:46:16;;;;;;;2.13;1.40;;;27.50;30.20;;;;;;5035320;28;20420;-74
2022/06/15 10:48:50;;;;;;;3.70;1.88;;;27.60;30.00;;;;;;5036340;28;20025;-73
2022/06/15 10:51:33;;;;;;;5.18;2.15;;;27.70;30.00;;;;;;5051814;28;20041;-75
2022/06/15 10:54:25;;;;;;;1.95;1.58;;;27.70;29.60;;;;;;5035253;28;20047;-76
2022/06/15 11:02:43;;;;;;;2.20;1.40;;;27.80;28.40;;;;;;5045356;28;20128;-74
2022/06/15 11:05:09;;;;;;;2.13;0.95;;;27.90;27.50;;;;;;5053573;28;20126;-76
2022/06/15 11:07:51;;;;;;;4.80;2.05;;;28.00;28.40;;;;;;5039192;28;20021;-73
2022/06/15 11:10:45;;;;;;;2.55;1.42;;;28.00;27.70;;;;;;5053678;28;20448;-73
2022/06/15 11:13:20;;;;;;;;;;;28.00;29.00;;;;;;5058179;28;20362;-72
2022/06/15 11:18:44;;;;;;;1.55;1.00;;;28.20;28.60;;;;;;5055868;28;20083;-78
2022/06/15 11:21:35;;;;;;;4.13;1.58;;;28.30;27.60;;;;;;5054001;28;20052;-72
2022/06/15 11:24:20;;;;;;;4.50;1.35;;;28.30;26.60;;;;;;5044415;28;20108;-80
2022/06/15 11:26:57;;;;;;;2.53;1.23;;;28.30;27.90;;;;;;5054222;28;20043;-79
2022/06/15 11:29:54;;;;;;;2.38;1.20;;;28.40;27.00;;;;;;5052695;28;20107;-80
2022/06/15 11:32:38;;;;;;;1.60;1.20;;;28.40;27.40;;;;;;5053299;28;20064;-79
2022/06/15 11:35:13;;;;;;;3.88;1.52;;;28.50;26.40;;;;;;5054461;28;20025;-80
2022/06/15 11:37:51;;;;;;;3.00;1.33;;;28.60;26.90;;;;;;5054663;28;20445;-80
2022/06/15 11:40:34;;;;;;;4.43;1.20;;;28.60;26.50;;;;;;5054066;28;20055;-79
2022/06/15 11:43:01;;;;;;;1.38;1.10;;;28.60;26.30;;;;;;5054429;28;20029;-79
2022/06/15 11:45:39;;;;;;;1.33;0.93;;;28.70;25.70;;;;;;5053842;28;20040;-79
2022/06/15 11:48:22;;;;;;;3.80;1.38;;;28.70;25.50;;;;;;5054277;28;20384;-80
2022/06/15 11:51:00;;;;;;;2.15;1.10;;;28.80;25.40;;;;;;5054350;28;20362;-80
2022/06/15 11:53:46;;;;;;;1.60;1.23;;;28.90;26.20;;;;;;5055308;28;20536;-80
2022/06/15 11:56:15;;;;;;;3.15;1.40;;;28.90;26.00;;;;;;5054205;28;20504;-77
2022/06/15 11:58:57;;;;;;;5.35;1.40;;;29.00;26.40;;;;;;5053991;28;20036;-77
2022/06/15 12:01:46;;;;;;;1.67;1.45;;;29.10;26.00;;;;;;5053601;28;20377;-77
2022/06/15 12:04:39;;;;;;;2.00;1.10;;;29.10;26.30;;;;;;5054952;28;20385;-77
2022/06/15 12:07:35;;;;;;;0.73;0.63;;;29.20;25.90;;;;;;5053855;28;20029;-77
2022/06/15 12:10:27;;;;;;;2.30;1.27;;;29.20;25.70;;;;;;5055062;28;20029;-79
2022/06/15 12:12:55;;;;;;;1.90;1.15;;;29.30;24.90;;;;;;5053766;28;20056;-78
2022/06/15 12:15:50;;;;;;;1.40;1.25;;;29.30;26.10;;;;;;5053702;28;20039;-78
2022/06/15 12:18:33;;;;;;;2.40;1.30;;;29.30;26.70;;;;;;5053648;28;20029;-78
2022/06/15 12:21:25;;;;;;;2.33;1.27;;;29.40;26.30;;;;;;5053467;28;20455;-78
2022/06/15 12:24:10;;;;;;;1.48;0.98;;;29.40;25.50;;;;;;5042569;28;20128;-78
2022/06/15 12:26:44;;;;;;;2.03;1.00;;;29.50;26.20;;;;;;5053450;28;20067;-78
2022/06/15 12:29:40;;;;;;;1.65;1.15;;;29.50;25.60;;;;;;5053457;28;20079;-78
2022/06/15 12:32:43;;;;;;;1.50;1.00;;;29.60;24.80;;;;;;5053164;28;20040;-79
2022/06/15 12:35:35;;;;;;;2.78;1.10;;;29.60;23.80;;;;;;5053201;28;20040;-78
2022/06/15 12:38:24;;;;;;;1.63;0.93;;;29.60;23.60;;;;;;5049829;28;20029;-78
2022/06/15 12:43:57;;;;;;;2.17;0.80;;;29.70;24.00;;;;;;5054158;28;20500;-78
2022/06/15 12:46:26;;;;;;;3.40;0.95;;;29.80;23.20;;;;;;5053130;28;20128;-78
2022/06/15 12:48:54;;;;;;;1.30;0.88;;;29.80;22.20;;;;;;5052982;28;20025;-78
2022/06/15 12:51:39;;;;;;;1.45;1.05;;;29.80;22.80;;;;;;5054004;28;20025;-78
2022/06/15 12:54:34;;;;;;;2.22;0.98;;;29.80;23.60;;;;;;5053019;28;20390;-78
2022/06/15 12:57:37;;;;;;;1.90;0.82;;;29.90;23.60;;;;;;5054027;28;20025;-78
2022/06/15 13:00:31;;;;;;;6.95;1.10;;;29.90;22.20;;;;;;5019366;28;20029;-78
2022/06/15 13:03:12;;;;;;;1.48;1.15;;;30.00;22.60;;;;;;5032839;28;20053;-78
2022/06/15 13:05:39;;;;;;;5.30;1.10;;;30.00;23.20;;;;;;5033978;28;20037;-78
2022/06/15 13:08:16;;;;;;;2.13;0.88;;;30.00;22.40;;;;;;5032723;28;20048;-78
2022/06/15 13:10:54;;;;;;;3.72;1.10;;;30.10;22.40;;;;;;5034007;28;20104;-78
2022/06/15 13:13:33;;;;;;;1.20;0.85;;;30.10;22.10;;;;;;5032659;28;20087;-78
2022/06/15 13:16:10;;;;;;;1.70;0.75;;;30.10;21.00;;;;;;5032554;28;20384;-79
2022/06/15 13:18:49;;;;;;;2.05;0.60;;;30.10;20.30;;;;;;5032774;28;20064;-78
2022/06/15 13:21:52;;;;;;;0.90;0.47;;;30.20;19.80;;;;;;5032710;28;20068;-78
2022/06/15 13:24:18;;;;;;;2.83;0.80;;;30.40;21.00;;;;;;5030557;28;20068;-77
2022/06/15 13:26:44;;;;;;;2.25;1.08;;;30.70;20.40;;;;;;5032267;28;20049;-78
2022/06/15 13:29:10;;;;;;;2.80;0.90;;;31.10;21.10;;;;;;5032389;28;20378;-78
2022/06/15 13:31:53;;;;;;;2.10;0.90;;;31.60;20.30;;;;;;5033790;28;20083;-78
2022/06/15 13:34:34;;;;;;;8.18;0.68;;;32.20;20.80;;;;;;5032281;28;20025;-79